Time;durP1;ratioP1;P1;durP2;ratioP2;P2;SDS_P1;SDS_P2;PMS_P1;PMS_P2;Temp;Humidity;BMP_temperature;BMP_pressure;BME280_temperature;BME280_humidity;BME280_pressure;Samples;Min_cycle;Max_cycle;Signal;HPM_P1;HPM_P2
2021/07/28 00:01:56;;;;;;;8.35;4.70;;;;;;;;;;6287811;22;20192;-90
2021/07/28 00:05:02;;;;;;;8.60;4.68;;;;;;;;;;6292979;22;20166;-91
2021/07/28 00:08:07;;;;;;;10.20;4.28;;;;;;;;;;6289798;22;20494;-89
2021/07/28 00:11:13;;;;;;;8.85;4.70;;;;;;;;;;6271489;22;20166;-89
2021/07/28 00:14:18;;;;;;;9.48;4.90;;;;;;;;;;6270696;22;20205;-89
2021/07/28 00:17:26;;;;;;;9.93;4.65;;;;;;;;;;6288893;22;20222;-89
2021/07/28 00:23:13;;;;;;;9.77;4.40;;;;;;;;;;6270239;22;20240;-90
2021/07/28 00:23:56;;;;;;;10.90;4.47;;;;;;;;;;6287045;22;20229;-90
2021/07/28 00:27:02;;;;;;;7.85;4.60;;;;;;;;;;6272391;22;20236;-91
2021/07/28 00:30:09;;;;;;;10.52;4.63;;;;;;;;;;6290602;22;20185;-90
2021/07/28 00:33:15;;;;;;;9.48;4.28;;;;;;;;;;6289354;22;20197;-90
2021/07/28 00:36:20;;;;;;;9.68;4.85;;;;;;;;;;6289434;22;20297;-89
2021/07/28 00:39:25;;;;;;;13.35;5.20;;;;;;;;;;6272573;22;20256;-90
2021/07/28 00:42:30;;;;;;;8.40;5.38;;;;;;;;;;6290659;22;20679;-90
2021/07/28 00:45:35;;;;;;;11.57;4.90;;;;;;;;;;6290468;22;20296;-89
2021/07/28 00:48:42;;;;;;;7.45;4.68;;;;;;;;;;6290104;22;20193;-88
2021/07/28 00:51:48;;;;;;;11.73;4.43;;;;;;;;;;6271359;22;20165;-90
2021/07/28 00:54:53;;;;;;;11.15;4.38;;;;;;;;;;6290617;22;20184;-91
2021/07/28 00:57:58;;;;;;;6.63;4.43;;;;;;;;;;6289389;22;20244;-90
2021/07/28 01:01:04;;;;;;;8.40;4.53;;;;;;;;;;6270631;22;20241;-89
2021/07/28 01:04:10;;;;;;;11.55;4.50;;;;;;;;;;6288325;22;20161;-91
2021/07/28 01:07:16;;;;;;;11.55;4.47;;;;;;;;;;6288174;22;20182;-90
2021/07/28 01:10:21;;;;;;;7.88;4.57;;;;;;;;;;6289741;22;20182;-90
2021/07/28 01:13:34;;;;;;;9.18;4.80;;;;;;;;;;6288832;22;20215;-89
2021/07/28 01:16:40;;;;;;;9.05;4.55;;;;;;;;;;6290092;22;20166;-90
2021/07/28 01:19:49;;;;;;;11.95;5.93;;;;;;;;;;6272181;22;20166;-90
2021/07/28 01:22:56;;;;;;;15.80;5.28;;;;;;;;;;6286945;22;20170;-90
2021/07/28 01:26:04;;;;;;;10.50;5.63;;;;;;;;;;6287520;22;20190;-90
2021/07/28 01:29:09;;;;;;;8.88;4.90;;;;;;;;;;6285636;22;20166;-88
2021/07/28 01:32:15;;;;;;;10.93;5.80;;;;;;;;;;6288180;22;20153;-90
2021/07/28 01:35:21;;;;;;;16.13;5.70;;;;;;;;;;6288106;22;20181;-89
2021/07/28 01:38:27;;;;;;;15.00;6.43;;;;;;;;;;6286158;22;20173;-90
2021/07/28 01:41:33;;;;;;;14.70;6.35;;;;;;;;;;6286926;22;20162;-89
2021/07/28 01:44:40;;;;;;;9.85;6.00;;;;;;;;;;6285566;22;20178;-88
2021/07/28 01:47:46;;;;;;;13.70;6.53;;;;;;;;;;6288808;22;20193;-90
2021/07/28 01:50:51;;;;;;;14.02;6.53;;;;;;;;;;6271469;22;20301;-90
2021/07/28 01:53:56;;;;;;;15.07;6.70;;;;;;;;;;6289911;22;20169;-90
2021/07/28 01:57:04;;;;;;;8.38;6.28;;;;;;;;;;6287988;22;20173;-90
2021/07/28 02:00:10;;;;;;;13.98;6.80;;;;;;;;;;6288711;22;20254;-90
2021/07/28 02:03:15;;;;;;;13.43;7.63;;;;;;;;;;6288765;22;20621;-89
2021/07/28 02:06:20;;;;;;;9.73;6.75;;;;;;;;;;6288750;22;20328;-90
2021/07/28 02:09:25;;;;;;;10.05;6.25;;;;;;;;;;6288374;22;20244;-89
2021/07/28 02:12:32;;;;;;;11.60;6.30;;;;;;;;;;6289069;22;20540;-90
2021/07/28 02:15:37;;;;;;;9.63;6.13;;;;;;;;;;6288818;22;20508;-89
2021/07/28 02:18:42;;;;;;;12.15;6.68;;;;;;;;;;6287577;22;20185;-89
2021/07/28 02:21:47;;;;;;;11.73;6.43;;;;;;;;;;6289529;22;20170;-89
2021/07/28 02:24:52;;;;;;;12.63;6.95;;;;;;;;;;6289287;22;20178;-89
2021/07/28 02:27:58;;;;;;;15.63;7.47;;;;;;;;;;6289516;22;20201;-89
2021/07/28 02:31:04;;;;;;;13.95;7.28;;;;;;;;;;6288777;22;20169;-89
2021/07/28 02:34:09;;;;;;;13.93;7.35;;;;;;;;;;6287324;22;20169;-89
2021/07/28 02:37:14;;;;;;;11.15;6.97;;;;;;;;;;6269649;22;20157;-90
2021/07/28 02:40:20;;;;;;;10.48;6.85;;;;;;;;;;6286545;22;20487;-88
2021/07/28 02:43:27;;;;;;;12.43;6.63;;;;;;;;;;6287860;22;20161;-90
2021/07/28 02:46:31;;;;;;;15.20;6.72;;;;;;;;;;6286560;22;20244;-89
2021/07/28 02:49:38;;;;;;;16.55;7.13;;;;;;;;;;6266975;22;20158;-90
2021/07/28 02:52:43;;;;;;;12.15;6.97;;;;;;;;;;6286556;22;20169;-89
2021/07/28 02:55:47;;;;;;;15.43;7.10;;;;;;;;;;6268246;22;20166;-88
2021/07/28 02:58:53;;;;;;;11.75;6.45;;;;;;;;;;6286087;22;20552;-90
2021/07/28 03:01:59;;;;;;;9.52;6.43;;;;;;;;;;6288030;22;20238;-89
2021/07/28 03:05:04;;;;;;;10.13;6.20;;;;;;;;;;6269941;22;20196;-90
2021/07/28 03:08:10;;;;;;;12.05;6.25;;;;;;;;;;6287857;22;20193;-89
2021/07/28 03:11:15;;;;;;;13.98;6.38;;;;;;;;;;6289213;22;20165;-89
2021/07/28 03:14:21;;;;;;;10.32;6.55;;;;;;;;;;6288972;22;20208;-90
2021/07/28 03:17:26;;;;;;;12.73;7.18;;;;;;;;;;6288651;22;20165;-88
2021/07/28 03:20:31;;;;;;;12.98;6.75;;;;;;;;;;6289389;22;20217;-90
2021/07/28 03:23:37;;;;;;;11.07;6.63;;;;;;;;;;6287539;22;20265;-89
2021/07/28 03:26:42;;;;;;;12.45;6.57;;;;;;;;;;6270934;22;20188;-89
2021/07/28 03:29:48;;;;;;;16.58;7.43;;;;;;;;;;6289041;22;20169;-90
2021/07/28 03:32:54;;;;;;;9.52;6.07;;;;;;;;;;6288686;22;20755;-89
2021/07/28 03:35:59;;;;;;;13.43;6.75;;;;;;;;;;6271049;22;20161;-89
2021/07/28 03:39:04;;;;;;;13.65;6.35;;;;;;;;;;6269854;22;20601;-90
2021/07/28 03:42:11;;;;;;;11.05;6.30;;;;;;;;;;6285322;22;20166;-90
2021/07/28 03:45:18;;;;;;;10.32;5.75;;;;;;;;;;6291943;22;20356;-88
2021/07/28 03:48:29;;;;;;;12.73;5.72;;;;;;;;;;6267554;22;20273;-88
2021/07/28 03:51:34;;;;;;;11.82;6.15;;;;;;;;;;6287994;22;20165;-91
2021/07/28 03:54:40;;;;;;;11.85;7.53;;;;;;;;;;6268497;22;20625;-88
2021/07/28 03:57:45;;;;;;;11.15;7.18;;;;;;;;;;6286673;22;20462;-89
2021/07/28 04:00:51;;;;;;;13.77;6.45;;;;;;;;;;6268860;22;20189;-91
2021/07/28 04:03:56;;;;;;;9.35;6.40;;;;;;;;;;6287973;22;20182;-89
2021/07/28 04:07:01;;;;;;;21.50;10.88;;;;;;;;;;6289547;22;20177;-89
2021/07/28 04:10:06;;;;;;;13.45;7.45;;;;;;;;;;6271491;22;20169;-89
2021/07/28 04:13:11;;;;;;;12.05;6.85;;;;;;;;;;6270166;22;20232;-90
2021/07/28 04:16:20;;;;;;;9.23;6.43;;;;;;;;;;6288542;22;20166;-88
2021/07/28 04:19:26;;;;;;;14.38;6.93;;;;;;;;;;6288320;22;20237;-90
2021/07/28 04:22:31;;;;;;;11.45;6.07;;;;;;;;;;6288423;22;20485;-90
2021/07/28 04:25:36;;;;;;;10.35;6.18;;;;;;;;;;6287844;22;20209;-89
2021/07/28 04:28:41;;;;;;;15.48;6.57;;;;;;;;;;6286258;22;20194;-89
2021/07/28 04:31:49;;;;;;;12.55;5.95;;;;;;;;;;6288153;22;20149;-89
2021/07/28 04:34:54;;;;;;;13.15;6.68;;;;;;;;;;6287246;22;20252;-89
2021/07/28 04:37:59;;;;;;;11.45;6.43;;;;;;;;;;6270746;22;20170;-88
2021/07/28 04:41:05;;;;;;;14.57;6.35;;;;;;;;;;6288128;22;20223;-89
2021/07/28 04:44:10;;;;;;;11.23;6.63;;;;;;;;;;6270143;22;20612;-90
2021/07/28 04:47:17;;;;;;;13.95;6.65;;;;;;;;;;6288293;22;20197;-90
2021/07/28 04:50:22;;;;;;;13.40;6.93;;;;;;;;;;6288277;22;20162;-90
2021/07/28 04:53:28;;;;;;;9.35;6.03;;;;;;;;;;6269006;22;20165;-89
2021/07/28 04:56:33;;;;;;;11.25;5.93;;;;;;;;;;6286384;22;20189;-88
2021/07/28 04:59:38;;;;;;;12.95;6.18;;;;;;;;;;6288461;22;20195;-89
2021/07/28 05:02:45;;;;;;;11.65;7.03;;;;;;;;;;6272555;22;20779;-89
2021/07/28 05:05:49;;;;;;;13.32;6.70;;;;;;;;;;6290126;22;20288;-89
2021/07/28 05:08:55;;;;;;;10.02;6.50;;;;;;;;;;6290003;22;20189;-89
2021/07/28 05:12:00;;;;;;;8.80;6.28;;;;;;;;;;6288660;22;20170;-90
2021/07/28 05:15:06;;;;;;;15.23;7.20;;;;;;;;;;6290854;22;20166;-89
2021/07/28 05:18:13;;;;;;;11.43;6.63;;;;;;;;;;6272850;22;20162;-87
2021/07/28 05:21:19;;;;;;;9.73;5.32;;;;;;;;;;6290319;22;20180;-88
2021/07/28 05:24:24;;;;;;;14.70;5.97;;;;;;;;;;6273466;22;20293;-88
2021/07/28 05:27:30;;;;;;;13.00;7.95;;;;;;;;;;6288114;22;20193;-87
2021/07/28 05:30:35;;;;;;;11.48;6.57;;;;;;;;;;6272167;22;20173;-89
2021/07/28 05:33:42;;;;;;;13.93;6.50;;;;;;;;;;6291981;22;20169;-88
2021/07/28 05:36:48;;;;;;;13.02;7.07;;;;;;;;;;6273718;22;20169;-88
2021/07/28 05:44:08;;;;;;;14.57;6.80;;;;;;;;;;6291733;22;20602;-88
2021/07/28 05:47:13;;;;;;;13.10;6.50;;;;;;;;;;6289887;22;20194;-89
2021/07/28 05:50:19;;;;;;;12.35;6.07;;;;;;;;;;6271864;22;20177;-89
2021/07/28 05:53:24;;;;;;;9.65;5.95;;;;;;;;;;6289415;22;20158;-89
2021/07/28 05:56:30;;;;;;;12.07;5.90;;;;;;;;;;6270377;22;20178;-90
2021/07/28 05:59:34;;;;;;;9.00;5.60;;;;;;;;;;6290035;22;20223;-89
2021/07/28 06:02:40;;;;;;;13.32;6.30;;;;;;;;;;6291440;22;20197;-89
2021/07/28 06:05:46;;;;;;;10.73;5.88;;;;;;;;;;6294482;22;20170;-90
2021/07/28 06:08:51;;;;;;;12.43;5.43;;;;;;;;;;6275448;22;20694;-90
2021/07/28 06:11:57;;;;;;;11.25;5.28;;;;;;;;;;6289779;22;20169;-89
2021/07/28 06:15:03;;;;;;;8.90;5.35;;;;;;;;;;6289605;22;20170;-89
2021/07/28 06:18:09;;;;;;;11.23;5.43;;;;;;;;;;6271507;22;20158;-89
2021/07/28 06:21:16;;;;;;;7.50;4.78;;;;;;;;;;6289266;22;20215;-89
2021/07/28 06:24:22;;;;;;;12.82;4.90;;;;;;;;;;6290021;22;20225;-89
2021/07/28 06:27:27;;;;;;;10.40;4.65;;;;;;;;;;6291173;22;20192;-89
2021/07/28 06:30:32;;;;;;;8.88;5.22;;;;;;;;;;6290173;22;20178;-89
2021/07/28 06:33:37;;;;;;;8.02;4.20;;;;;;;;;;6292539;22;20181;-89
2021/07/28 06:47:13;;;;;;;9.85;4.88;;;;;;;;;;6282552;22;20189;-90
2021/07/28 06:50:26;;;;;;;9.02;4.03;;;;;;;;;;6299537;22;20540;-91
2021/07/28 06:53:36;;;;;;;6.13;4.25;;;;;;;;;;6282877;22;20166;-89
2021/07/28 17:48:23;;;;;;;10.02;5.00;;;;;;;;;;6242279;22;20198;31
2021/07/28 17:51:30;;;;;;;8.65;4.30;;;;;;;;;;6210299;23;20179;-87
2021/07/28 17:54:36;;;;;;;8.63;4.38;;;;;;;;;;6210811;23;20187;-89
2021/07/28 17:57:40;;;;;;;9.05;5.38;;;;;;;;;;6212843;23;20175;-87
2021/07/28 18:00:46;;;;;;;6.25;4.53;;;;;;;;;;6211448;23;20216;-89
2021/07/28 18:03:57;;;;;;;6.68;4.15;;;;;;;;;;6208441;23;20604;-88
2021/07/28 18:07:06;;;;;;;6.40;4.13;;;;;;;;;;6210679;23;20175;-87
2021/07/28 18:10:11;;;;;;;7.45;4.47;;;;;;;;;;6211610;23;20266;-89
2021/07/28 18:13:16;;;;;;;8.35;5.00;;;;;;;;;;6208962;23;20291;-88
2021/07/28 18:16:21;;;;;;;9.88;5.65;;;;;;;;;;6210541;23;20283;-89
2021/07/28 18:19:27;;;;;;;7.50;4.43;;;;;;;;;;6210840;23;20257;-86
2021/07/28 18:22:33;;;;;;;9.60;5.32;;;;;;;;;;6227981;23;20556;-88
2021/07/28 18:25:39;;;;;;;10.10;5.38;;;;;;;;;;6212443;23;20154;-88
2021/07/28 18:28:44;;;;;;;12.10;6.53;;;;;;;;;;6211833;23;20199;-89
2021/07/28 18:31:51;;;;;;;8.35;5.05;;;;;;;;;;6230136;23;20171;-90
2021/07/28 18:34:56;;;;;;;7.20;4.60;;;;;;;;;;6212382;23;20167;-91
2021/07/28 18:38:02;;;;;;;8.07;4.82;;;;;;;;;;6212518;23;20167;-91
2021/07/28 18:41:08;;;;;;;7.82;4.75;;;;;;;;;;6212777;23;20154;-89
2021/07/28 18:44:13;;;;;;;9.18;4.68;;;;;;;;;;6212675;22;20240;-90
2021/07/28 18:47:19;;;;;;;9.13;5.38;;;;;;;;;;6213418;23;20171;-89
2021/07/28 18:50:26;;;;;;;9.23;5.57;;;;;;;;;;6215390;22;20178;-89
2021/07/28 18:53:35;;;;;;;10.05;5.15;;;;;;;;;;6213376;23;20155;-90
2021/07/28 18:56:40;;;;;;;21.80;5.30;;;;;;;;;;6210461;22;20155;-88
2021/07/28 18:59:45;;;;;;;11.48;5.78;;;;;;;;;;6211592;22;20171;-89
2021/07/28 19:02:51;;;;;;;8.07;5.00;;;;;;;;;;6214251;23;20194;-90
2021/07/28 19:05:56;;;;;;;12.95;6.03;;;;;;;;;;6212238;23;20223;-88
2021/07/28 19:09:03;;;;;;;10.45;4.90;;;;;;;;;;6212286;23;20258;-89
2021/07/28 19:12:09;;;;;;;10.05;5.60;;;;;;;;;;6214406;23;20170;-89
2021/07/28 19:15:15;;;;;;;8.70;5.15;;;;;;;;;;6213058;23;20170;-90
2021/07/28 19:18:22;;;;;;;7.95;4.85;;;;;;;;;;6215225;23;20214;-89
2021/07/28 19:21:27;;;;;;;8.48;4.90;;;;;;;;;;6210196;23;20163;-89
2021/07/28 19:24:33;;;;;;;11.48;5.38;;;;;;;;;;6211743;23;20171;-88
2021/07/28 19:27:42;;;;;;;16.48;5.82;;;;;;;;;;6210677;23;20171;-89
2021/07/28 19:30:47;;;;;;;11.55;5.35;;;;;;;;;;6211263;23;20168;-89
2021/07/28 19:33:53;;;;;;;11.50;5.22;;;;;;;;;;6211893;23;20677;-89
2021/07/28 19:36:58;;;;;;;8.60;5.10;;;;;;;;;;6211628;23;20171;-89
2021/07/28 19:40:06;;;;;;;10.00;5.30;;;;;;;;;;6210689;23;20171;-91
2021/07/28 19:43:11;;;;;;;11.40;5.97;;;;;;;;;;6209797;23;20216;-88
2021/07/28 19:46:15;;;;;;;12.07;7.28;;;;;;;;;;6212291;22;20232;-89
2021/07/28 19:49:21;;;;;;;9.98;5.53;;;;;;;;;;6210599;22;20226;-89
2021/07/28 19:52:26;;;;;;;10.18;6.05;;;;;;;;;;6233118;22;20167;-91
2021/07/28 19:55:33;;;;;;;9.73;5.53;;;;;;;;;;6211619;23;20179;-90
2021/07/28 19:58:41;;;;;;;23.90;12.43;;;;;;;;;;6212161;23;20630;-89
2021/07/28 20:01:47;;;;;;;9.43;6.03;;;;;;;;;;6210690;23;20214;-89
2021/07/28 20:04:54;;;;;;;13.40;7.03;;;;;;;;;;6213184;23;20175;-88
2021/07/28 20:07:59;;;;;;;12.27;5.25;;;;;;;;;;6213502;23;20178;-89
2021/07/28 20:11:06;;;;;;;7.95;5.30;;;;;;;;;;6212930;23;20163;-89
2021/07/28 20:14:11;;;;;;;9.93;5.13;;;;;;;;;;6212266;23;20187;-89
2021/07/28 20:17:17;;;;;;;8.95;5.30;;;;;;;;;;6210593;23;20263;-90
2021/07/28 20:20:22;;;;;;;11.40;5.97;;;;;;;;;;6210792;23;20163;-90
2021/07/28 20:23:27;;;;;;;7.97;5.32;;;;;;;;;;6211019;22;20172;-91
2021/07/28 20:26:34;;;;;;;9.63;5.85;;;;;;;;;;6210685;23;20163;-90
2021/07/28 20:29:39;;;;;;;8.60;5.75;;;;;;;;;;6210504;23;20325;-91
2021/07/28 20:32:45;;;;;;;12.90;5.93;;;;;;;;;;6209344;23;20614;-90
2021/07/28 20:35:51;;;;;;;12.45;5.57;;;;;;;;;;6228585;23;20196;-90
2021/07/28 20:38:57;;;;;;;10.07;5.60;;;;;;;;;;6209309;23;20215;-91
2021/07/28 20:42:03;;;;;;;9.95;5.85;;;;;;;;;;6212653;23;20167;-92
2021/07/28 20:45:10;;;;;;;9.30;5.90;;;;;;;;;;6217119;23;20530;-89
2021/07/28 20:48:15;;;;;;;12.65;6.15;;;;;;;;;;6215404;23;20159;-91
2021/07/28 20:51:20;;;;;;;11.30;6.10;;;;;;;;;;6217070;22;20228;-89
2021/07/28 20:54:26;;;;;;;11.18;5.82;;;;;;;;;;6213820;23;20166;-89
2021/07/28 20:57:36;;;;;;;12.55;6.22;;;;;;;;;;6213285;22;20253;-90
2021/07/28 21:00:41;;;;;;;12.20;6.65;;;;;;;;;;6214019;23;20179;-90
2021/07/28 21:03:46;;;;;;;12.93;6.25;;;;;;;;;;6214088;23;20151;-90
2021/07/28 21:06:52;;;;;;;13.07;6.90;;;;;;;;;;6212314;23;20183;-90
2021/07/28 21:09:57;;;;;;;10.15;6.55;;;;;;;;;;6213717;23;20202;-89
2021/07/28 21:13:04;;;;;;;16.13;6.97;;;;;;;;;;6211334;23;20167;-91
2021/07/28 21:16:09;;;;;;;12.65;6.63;;;;;;;;;;6213204;23;20171;-90
2021/07/28 21:19:14;;;;;;;11.63;6.95;;;;;;;;;;6216952;23;20726;-90
2021/07/28 21:22:21;;;;;;;9.27;6.13;;;;;;;;;;6216797;23;20163;-90
2021/07/28 21:25:26;;;;;;;13.77;7.20;;;;;;;;;;6218850;23;20170;-90
2021/07/28 21:28:33;;;;;;;14.43;7.43;;;;;;;;;;6217489;22;20160;-89
2021/07/28 21:31:39;;;;;;;13.52;6.88;;;;;;;;;;6213949;22;20194;-89
2021/07/28 21:34:45;;;;;;;12.73;7.00;;;;;;;;;;6211896;23;20167;-92
2021/07/28 21:37:51;;;;;;;12.65;7.18;;;;;;;;;;6211733;23;20162;-90
2021/07/28 21:41:00;;;;;;;13.02;6.95;;;;;;;;;;6210476;23;20198;-89
2021/07/28 21:44:09;;;;;;;16.63;6.88;;;;;;;;;;6210463;22;20171;-91
2021/07/28 21:47:15;;;;;;;13.38;6.70;;;;;;;;;;6211573;23;20601;-90
2021/07/28 21:50:21;;;;;;;15.25;7.70;;;;;;;;;;6229967;23;20206;-89
2021/07/28 21:53:37;;;;;;;14.32;7.80;;;;;;;;;;6211901;23;20167;-88
2021/07/28 21:56:44;;;;;;;14.10;6.93;;;;;;;;;;6210762;22;20167;-90
2021/07/28 21:59:51;;;;;;;10.57;6.50;;;;;;;;;;6209498;23;20171;-91
2021/07/28 22:03:01;;;;;;;10.00;6.22;;;;;;;;;;6208686;23;20170;-91
2021/07/28 22:06:07;;;;;;;11.93;6.15;;;;;;;;;;6209451;23;20252;-90
2021/07/28 22:09:12;;;;;;;9.23;4.80;;;;;;;;;;6208545;23;20654;-89
2021/07/28 22:12:17;;;;;;;6.80;4.43;;;;;;;;;;6209563;22;20502;-91
2021/07/28 22:15:24;;;;;;;7.90;4.70;;;;;;;;;;6208747;22;20175;-90
2021/07/28 22:18:29;;;;;;;11.32;5.75;;;;;;;;;;6209305;23;20190;-90
2021/07/28 22:21:35;;;;;;;12.95;5.30;;;;;;;;;;6185005;23;20611;-91
2021/07/28 22:24:43;;;;;;;9.07;5.30;;;;;;;;;;6209051;23;20211;-89
2021/07/28 22:27:48;;;;;;;8.32;4.55;;;;;;;;;;6209959;22;20239;-90
2021/07/28 22:30:55;;;;;;;9.55;4.80;;;;;;;;;;6208523;23;20242;-90
2021/07/28 22:34:00;;;;;;;8.98;4.20;;;;;;;;;;6208266;23;20166;-89
2021/07/28 22:37:05;;;;;;;6.78;3.97;;;;;;;;;;6209372;23;20175;-89
2021/07/28 22:40:10;;;;;;;9.13;4.22;;;;;;;;;;6208506;23;20167;-89
2021/07/28 22:43:18;;;;;;;8.15;4.80;;;;;;;;;;6208588;23;20266;-87
2021/07/28 22:46:26;;;;;;;7.00;4.38;;;;;;;;;;6208157;23;20166;-90
2021/07/28 22:56:20;;;;;;;8.77;4.68;;;;;;;;;;6209519;22;20163;-88
2021/07/28 22:59:38;;;;;;;9.60;4.60;;;;;;;;;;6208193;22;20175;-89
2021/07/28 23:09:30;;;;;;;8.95;4.35;;;;;;;;;;6207156;22;20171;-89
2021/07/28 23:12:36;;;;;;;11.65;4.82;;;;;;;;;;6207093;22;20302;-89
2021/07/28 23:15:41;;;;;;;8.18;4.72;;;;;;;;;;6207261;23;20159;-90
2021/07/28 23:18:47;;;;;;;7.80;4.95;;;;;;;;;;6206914;23;20171;-91
2021/07/28 23:21:52;;;;;;;9.48;4.90;;;;;;;;;;6207450;23;20889;-91
2021/07/28 23:24:57;;;;;;;10.23;5.15;;;;;;;;;;6207197;22;20618;-90
2021/07/28 23:28:02;;;;;;;10.20;4.82;;;;;;;;;;6206986;23;20287;-90
2021/07/28 23:31:07;;;;;;;11.32;4.90;;;;;;;;;;6206718;23;20195;-89
2021/07/28 23:34:14;;;;;;;9.38;4.75;;;;;;;;;;6206750;23;20257;-90
2021/07/28 23:37:19;;;;;;;10.48;4.63;;;;;;;;;;6207070;23;20233;-90
2021/07/28 23:40:24;;;;;;;8.88;4.93;;;;;;;;;;6205943;23;20168;-89
2021/07/28 23:43:29;;;;;;;9.57;4.70;;;;;;;;;;6207611;23;20267;-90
2021/07/28 23:46:34;;;;;;;11.15;6.22;;;;;;;;;;6206184;23;20622;-91
2021/07/28 23:49:40;;;;;;;9.93;6.18;;;;;;;;;;6207527;23;20317;-89
2021/07/28 23:52:46;;;;;;;10.93;6.28;;;;;;;;;;6206813;23;20564;-90
2021/07/28 23:55:51;;;;;;;12.63;6.45;;;;;;;;;;6206391;23;20188;-90
2021/07/28 23:58:56;;;;;;;10.90;5.72;;;;;;;;;;6205912;23;20170;-90
